Espyville, Pennsylvania
Current Conditions -  °F | °C
As of 4:53 AM on Friday 31 Oct 2014 (Local Time) from KGKJ Reporting Station
Overcast Overcast  
Wind Chill: 38°   Ceiling: 4600
Heat Index: 41°   Visibility: 10mi
Dew Point: 36°   Wind: 5mph
Humidity: 82%   Direction: 170°S
Pressure: 29.96"   Gusts: NA
Location:  41.6811°N, 80.4288°W
Report Text: KGKJ 310853Z AUTO 17004KT 10SM OVC046 05/02 A2996 RMK AO2 SLP151 T00500022 56013 TSNO
Loading
Personal Weather Stations






























Interactive Weather Map New forecast layout! Learn more

10-Day Weather Forecast

Advertisements
Track Severe Weather on mobile